Time;durP1;ratioP1;P1;durP2;ratioP2;P2;SDS_P1;SDS_P2;PMS_P1;PMS_P2;Temp;Humidity;BMP_temperature;BMP_pressure;BME280_temperature;BME280_humidity;BME280_pressure;Samples;Min_cycle;Max_cycle;Signal;HPM_P1;HPM_P2
2022/05/04 00:00:30;;;;;;;9.00;3.55;;;;;;;11.28;56.65;101858.13;4972416;28;20057;-87
2022/05/04 00:02:56;;;;;;;10.85;4.57;;;;;;;11.28;58.48;101856.34;4990033;28;20080;-86
2022/05/04 00:05:21;;;;;;;11.30;4.43;;;;;;;11.16;57.59;101848.75;4984782;28;20110;-88
2022/05/04 00:07:47;;;;;;;11.98;4.60;;;;;;;11.09;59.10;101852.47;4990872;28;20188;-87
2022/05/04 00:10:13;;;;;;;12.38;4.50;;;;;;;10.95;61.11;101845.75;4975835;28;20125;-86
2022/05/04 00:12:39;;;;;;;9.23;4.20;;;;;;;10.96;58.81;101849.28;4972165;28;20057;-88
2022/05/04 00:15:05;;;;;;;11.50;4.50;;;;;;;10.75;60.00;101831.28;4991323;28;20034;-86
2022/05/04 00:17:30;;;;;;;11.98;4.20;;;;;;;10.75;60.69;101861.25;4992359;28;20636;-86
2022/05/04 00:19:55;;;;;;;10.25;4.47;;;;;;;10.66;61.83;101865.00;4988615;28;20034;-86
2022/05/04 00:22:22;;;;;;;12.02;5.30;;;;;;;10.62;61.63;101865.09;4973860;28;20165;-87
2022/05/04 00:24:48;;;;;;;8.63;4.43;;;;;;;10.58;61.87;101861.66;4973361;28;20485;-88
2022/05/04 00:27:15;;;;;;;8.07;4.28;;;;;;;10.67;59.02;101868.50;4993705;28;20025;-88
2022/05/04 00:29:42;;;;;;;9.45;4.60;;;;;;;10.69;60.87;101856.13;4987337;28;20038;-86
2022/05/04 00:32:08;;;;;;;9.23;4.13;;;;;;;10.82;58.14;101861.97;4995217;28;20180;-86
2022/05/04 00:34:33;;;;;;;10.63;4.40;;;;;;;10.90;59.22;101854.72;4990282;28;20114;-86
2022/05/04 00:37:01;;;;;;;7.25;4.25;;;;;;;10.99;57.79;101863.28;4972245;28;20028;-87
2022/05/04 00:39:27;;;;;;;10.00;4.72;;;;;;;10.99;59.02;101859.78;4987651;28;20038;-87
2022/05/04 00:41:52;;;;;;;10.75;4.38;;;;;;;11.02;58.99;101857.06;4992270;28;20092;-86
2022/05/04 00:44:17;;;;;;;10.60;4.28;;;;;;;11.05;59.99;101857.00;4969885;28;20022;-86
2022/05/04 00:46:45;;;;;;;10.57;4.70;;;;;;;11.01;60.03;101850.03;4987386;28;20053;-87
2022/05/04 00:49:11;;;;;;;7.75;4.25;;;;;;;10.99;59.11;101862.41;4969169;28;20040;-87
2022/05/04 00:51:37;;;;;;;9.48;4.20;;;;;;;10.90;58.01;101854.72;4986887;28;20022;-86
2022/05/04 00:54:03;;;;;;;8.13;4.43;;;;;;;10.85;58.69;101853.97;4990454;28;20124;-86
2022/05/04 00:56:29;;;;;;;7.80;4.47;;;;;;;10.73;61.06;101834.00;4987943;28;20137;-87
2022/05/04 00:58:56;;;;;;;12.55;4.45;;;;;;;10.73;58.53;101848.06;4990537;28;20026;-87
2022/05/04 01:01:26;;;;;;;7.90;3.97;;;;;;;10.72;60.24;101843.69;4990173;28;20440;-87
2022/05/04 01:03:53;;;;;;;9.90;4.40;;;;;;;10.75;60.96;101855.09;4969742;28;20057;-87
2022/05/04 01:06:19;;;;;;;9.30;4.13;;;;;;;10.79;58.71;101854.13;4967022;28;20478;-86
2022/05/04 01:08:44;;;;;;;10.55;4.18;;;;;;;10.80;58.54;101845.28;4969048;28;20501;-87
2022/05/04 01:11:09;;;;;;;8.95;4.13;;;;;;;10.82;58.63;101841.69;4988914;28;20049;-86
2022/05/04 01:13:35;;;;;;;7.55;4.30;;;;;;;10.88;58.54;101846.81;4973924;28;20053;-87
2022/05/04 01:16:00;;;;;;;7.38;4.05;;;;;;;10.90;58.65;101844.13;4987084;28;20026;-87
2022/05/04 01:18:25;;;;;;;7.95;3.47;;;;;;;11.00;57.90;101848.28;4973701;28;20184;-88
2022/05/04 01:20:51;;;;;;;11.30;4.20;;;;;;;11.05;57.72;101851.69;4972183;28;20096;-87
2022/05/04 01:23:16;;;;;;;10.05;3.75;;;;;;;11.06;57.71;101844.63;4974377;28;20520;-88
2022/05/04 01:25:42;;;;;;;11.73;4.07;;;;;;;11.07;57.48;101847.22;4970100;28;20022;-87
2022/05/04 01:28:07;;;;;;;6.80;3.80;;;;;;;11.05;57.40;101840.22;4985296;28;20145;-87
2022/05/04 01:30:35;;;;;;;11.60;3.65;;;;;;;11.13;57.13;101848.81;4968087;28;20526;-87
2022/05/04 01:33:01;;;;;;;9.35;3.63;;;;;;;11.11;57.91;101848.88;4986288;28;20067;-87
2022/05/04 01:35:26;;;;;;;7.55;3.50;;;;;;;11.07;59.74;101852.50;4969472;28;20288;-87
2022/05/04 01:37:52;;;;;;;8.10;3.67;;;;;;;11.01;58.05;101841.22;4984645;28;20100;-87
2022/05/04 01:40:18;;;;;;;9.95;3.50;;;;;;;10.99;57.98;101831.53;4968452;28;20964;-87
2022/05/04 01:42:43;;;;;;;12.70;4.35;;;;;;;10.98;60.37;101848.31;4972325;28;20075;-87
2022/05/04 01:45:09;;;;;;;9.68;4.05;;;;;;;10.95;60.19;101850.16;4985221;28;20377;-87
2022/05/04 01:47:35;;;;;;;7.43;3.80;;;;;;;10.82;59.18;101831.13;4971606;28;20113;-87
2022/05/04 01:50:02;;;;;;;9.15;3.63;;;;;;;10.90;57.99;101845.00;4971155;28;20033;-87
2022/05/04 01:52:27;;;;;;;8.82;3.60;;;;;;;10.98;57.59;101847.44;4983416;28;20124;-87
2022/05/04 01:54:52;;;;;;;8.15;3.63;;;;;;;10.98;57.96;101848.31;4972202;28;20030;-87
2022/05/04 01:57:20;;;;;;;7.88;3.67;;;;;;;10.92;58.67;101843.19;4985628;28;20081;-87
2022/05/04 01:59:45;;;;;;;6.90;3.40;;;;;;;10.96;59.84;101838.69;4987827;28;20038;-88
2022/05/04 02:02:10;;;;;;;8.82;3.58;;;;;;;10.95;58.87;101834.28;4984377;28;20548;-87
2022/05/04 02:04:37;;;;;;;8.52;4.20;;;;;;;10.97;59.04;101845.72;4989714;28;20468;-87
2022/05/04 02:07:03;;;;;;;9.63;4.00;;;;;;;10.79;58.80;101814.44;4984452;28;20030;-87
2022/05/04 02:09:29;;;;;;;9.80;3.90;;;;;;;10.86;58.05;101826.59;4990939;28;20529;-88
2022/05/04 02:11:55;;;;;;;9.70;3.72;;;;;;;10.86;58.88;101811.59;4990271;28;20027;-87
2022/05/04 02:14:20;;;;;;;8.95;3.47;;;;;;;11.05;57.75;101843.75;4989054;28;20030;-87
2022/05/04 02:16:46;;;;;;;8.75;3.80;;;;;;;11.01;57.08;101828.88;4983859;28;20394;-87
2022/05/04 02:19:11;;;;;;;7.93;3.60;;;;;;;11.06;56.67;101834.91;4969746;28;20509;-86
2022/05/04 02:21:37;;;;;;;8.68;3.65;;;;;;;11.04;56.78;101835.84;4975563;28;20037;-87
2022/05/04 02:24:02;;;;;;;10.73;3.42;;;;;;;11.08;57.03;101843.66;4971389;28;20113;-87
2022/05/04 02:26:27;;;;;;;9.27;4.18;;;;;;;11.04;59.92;101833.19;4986870;28;20699;-87
2022/05/04 02:28:54;;;;;;;9.68;3.85;;;;;;;10.99;57.24;101830.66;4987670;28;20034;-87
2022/05/04 02:31:19;;;;;;;7.60;4.53;;;;;;;10.94;57.03;101821.97;4989710;28;20025;-87
2022/05/04 02:33:47;;;;;;;7.03;3.60;;;;;;;10.92;58.50;101826.47;4994227;28;20032;-88
2022/05/04 02:38:57;;;;;;;7.90;3.88;;;;;;;10.76;58.82;101810.09;4994833;28;20100;-87
2022/05/04 02:41:23;;;;;;;11.07;4.60;;;;;;;10.79;58.78;101811.78;4992048;28;20034;-88
2022/05/04 02:43:48;;;;;;;9.10;3.83;;;;;;;10.78;58.54;101820.66;4976329;28;20144;-87
2022/05/04 02:46:16;;;;;;;12.93;4.40;;;;;;;10.86;57.47;101834.53;4990031;28;20046;-88
2022/05/04 02:48:42;;;;;;;11.25;3.78;;;;;;;10.79;58.80;101817.09;4991093;28;20056;-87
2022/05/04 02:51:07;;;;;;;8.20;3.40;;;;;;;10.82;57.21;101830.22;4989740;28;20039;-87
2022/05/04 02:53:33;;;;;;;8.43;3.63;;;;;;;10.67;58.65;101811.19;4991704;28;20188;-88
2022/05/04 02:55:58;;;;;;;8.40;3.80;;;;;;;10.66;60.73;101814.75;4990717;28;20061;-87
2022/05/04 02:58:24;;;;;;;7.65;3.58;;;;;;;10.68;58.18;101812.94;4992012;28;20038;-87
2022/05/04 03:00:49;;;;;;;12.60;4.32;;;;;;;10.75;57.51;101812.78;4972529;28;20026;-87
2022/05/04 03:03:14;;;;;;;10.23;3.47;;;;;;;10.84;59.93;101820.47;4994132;28;20316;-87
2022/05/04 03:05:40;;;;;;;10.77;3.65;;;;;;;10.74;58.46;101806.63;4986794;28;20040;-87
2022/05/04 03:08:05;;;;;;;11.77;4.35;;;;;;;10.67;59.25;101800.59;4973734;28;20026;-87
2022/05/04 03:11:54;;;;;;;7.07;3.80;;;;;;;10.67;60.06;101808.53;4976820;28;20144;-87
2022/05/04 03:13:16;;;;;;;9.65;4.47;;;;;;;10.62;60.34;101809.56;4995185;28;20041;-88
2022/05/04 03:15:41;;;;;;;8.05;3.63;;;;;;;10.51;60.74;101807.19;4990617;28;20061;-87
2022/05/04 03:18:07;;;;;;;10.50;3.83;;;;;;;10.54;59.34;101808.88;4972043;28;20034;-87
2022/05/04 03:20:32;;;;;;;7.68;3.97;;;;;;;10.54;59.63;101811.53;4988749;28;20038;-87
2022/05/04 03:22:57;;;;;;;10.73;4.25;;;;;;;10.56;60.98;101807.09;4990694;28;20026;-86
2022/05/04 03:25:23;;;;;;;11.13;4.40;;;;;;;10.59;58.46;101810.53;4988875;28;20556;-87
2022/05/04 03:27:48;;;;;;;11.30;4.78;;;;;;;10.58;61.18;101807.91;4991219;28;20440;-88
2022/05/04 03:30:14;;;;;;;7.85;4.13;;;;;;;10.54;58.34;101795.66;4990585;28;20022;-87
2022/05/04 03:32:39;;;;;;;9.32;4.05;;;;;;;10.57;61.27;101796.47;4990817;28;20478;-88
2022/05/04 03:35:05;;;;;;;12.48;4.72;;;;;;;10.58;62.07;101805.25;4989969;28;20022;-87
2022/05/04 03:37:30;;;;;;;7.47;3.90;;;;;;;10.53;59.88;101808.00;4987706;28;20417;-87
2022/05/04 03:39:55;;;;;;;9.52;3.72;;;;;;;10.46;59.32;101806.44;4991508;28;20073;-87
2022/05/04 03:42:21;;;;;;;14.57;4.10;;;;;;;10.56;57.86;101817.66;4969887;28;20975;-87
2022/05/04 03:44:46;;;;;;;10.50;3.63;;;;;;;10.41;59.30;101789.81;4970315;28;20034;-87
2022/05/04 03:47:11;;;;;;;7.50;3.80;;;;;;;10.40;62.05;101801.31;4987650;28;20029;-87
2022/05/04 03:49:37;;;;;;;12.40;4.05;;;;;;;10.34;59.27;101799.66;4977439;28;20030;-86
2022/05/04 03:52:02;;;;;;;10.60;3.90;;;;;;;10.30;62.80;101803.28;4989459;28;20018;-87
2022/05/04 03:54:27;;;;;;;11.43;3.85;;;;;;;10.28;60.61;101812.16;4988688;28;20041;-87
2022/05/04 03:56:53;;;;;;;8.73;3.80;;;;;;;10.29;59.21;101804.19;4971733;28;20169;-87
2022/05/04 03:59:18;;;;;;;8.35;4.00;;;;;;;10.36;58.99;101810.22;4989693;28;20436;-86
2022/05/04 04:01:43;;;;;;;5.53;4.20;;;;;;;10.36;60.01;101810.22;4970706;28;20113;-87
2022/05/04 04:04:09;;;;;;;10.52;4.00;;;;;;;10.36;59.78;101804.94;4969760;28;20112;-87
2022/05/04 04:06:34;;;;;;;8.63;4.10;;;;;;;10.43;59.02;101812.66;4989882;28;20064;-87
2022/05/04 04:09:01;;;;;;;13.68;4.50;;;;;;;10.48;58.25;101817.84;4994888;28;20101;-87
2022/05/04 04:11:26;;;;;;;8.27;3.95;;;;;;;10.48;60.23;101812.53;4987177;28;20109;-88
2022/05/04 04:13:52;;;;;;;10.75;4.38;;;;;;;10.46;61.60;101814.38;4988438;28;20113;-87
2022/05/04 04:16:17;;;;;;;5.97;3.40;;;;;;;10.42;58.64;101821.50;4987786;28;20053;-87
2022/05/04 04:18:42;;;;;;;8.15;3.70;;;;;;;10.38;61.86;101813.69;4985389;28;20030;-87
2022/05/04 04:23:52;;;;;;;8.32;4.03;;;;;;;10.38;59.11;101821.59;4991000;28;20106;-87
2022/05/04 04:26:17;;;;;;;11.75;5.03;;;;;;;10.41;61.98;101816.25;4993591;28;20030;-86
2022/05/04 04:28:43;;;;;;;14.18;4.50;;;;;;;10.35;59.22;101801.41;4985353;28;20032;-87
2022/05/04 04:31:09;;;;;;;12.40;4.25;;;;;;;10.41;61.61;101811.84;4983503;28;20692;-86
2022/05/04 04:33:35;;;;;;;10.40;3.90;;;;;;;10.44;59.34;101816.16;4972068;28;20022;-86
2022/05/04 04:36:00;;;;;;;14.30;4.82;;;;;;;10.40;58.68;101806.59;4983209;28;20350;-86
2022/05/04 04:38:27;;;;;;;9.77;4.50;;;;;;;10.43;60.19;101817.94;4991596;28;20030;-86
2022/05/04 04:40:53;;;;;;;7.97;3.88;;;;;;;10.35;58.67;101808.44;4990113;28;20027;-87
2022/05/04 04:43:18;;;;;;;9.88;4.97;;;;;;;10.28;59.25;101828.88;4989164;28;20069;-88
2022/05/04 04:45:44;;;;;;;9.05;4.13;;;;;;;10.10;59.31;101823.97;4986788;28;20038;-86
2022/05/04 04:48:11;;;;;;;11.05;4.20;;;;;;;10.02;62.96;101828.56;4984568;28;20034;-87
2022/05/04 04:50:36;;;;;;;11.57;3.95;;;;;;;9.97;61.62;101826.03;4971004;28;20133;-86
2022/05/04 04:53:01;;;;;;;15.23;4.65;;;;;;;9.95;62.29;101825.19;4977887;28;20396;-87
2022/05/04 04:55:27;;;;;;;11.82;4.30;;;;;;;9.99;63.08;101826.00;4990861;28;20076;-86
2022/05/04 04:57:52;;;;;;;8.63;4.57;;;;;;;9.96;63.70;101817.22;4973853;28;20050;-86
2022/05/04 05:00:20;;;;;;;13.52;4.15;;;;;;;10.00;60.04;101812.75;4993064;28;20026;-87
2022/05/04 05:02:45;;;;;;;11.35;4.38;;;;;;;10.08;60.28;101825.81;4989566;28;20442;-88
2022/05/04 05:05:10;;;;;;;11.48;4.97;;;;;;;10.14;61.17;101823.88;4993829;28;20049;-87
2022/05/04 05:07:36;;;;;;;8.95;4.13;;;;;;;10.08;61.42;101821.38;4993082;28;20025;-86
2022/05/04 05:10:02;;;;;;;15.70;4.60;;;;;;;10.01;61.20;101822.41;4990701;28;20406;-88
2022/05/04 05:12:27;;;;;;;9.95;4.45;;;;;;;9.89;61.63;101809.50;4986416;28;20049;-86
2022/05/04 05:17:37;;;;;;;10.00;4.22;;;;;;;10.04;60.60;101822.34;4990667;28;20401;-86
2022/05/04 05:20:03;;;;;;;14.48;4.57;;;;;;;10.11;59.85;101817.78;4975008;28;20030;-88
2022/05/04 05:22:29;;;;;;;13.35;5.30;;;;;;;10.19;59.91;101826.41;4989983;28;20328;-86
2022/05/04 05:24:55;;;;;;;11.35;5.13;;;;;;;10.23;59.40;101822.81;4991889;28;20712;-87
2022/05/04 05:27:22;;;;;;;11.23;4.75;;;;;;;10.27;60.06;101831.56;4992399;28;20033;-86
2022/05/04 05:29:47;;;;;;;15.05;4.88;;;;;;;10.20;59.77;101828.16;4973051;28;20304;-86
2022/05/04 05:32:16;;;;;;;14.63;5.32;;;;;;;10.19;61.09;101821.13;4984696;28;20026;-87
2022/05/04 05:34:42;;;;;;;15.77;5.15;;;;;;;10.20;60.77;101810.50;4975098;28;20034;-87
2022/05/04 05:37:07;;;;;;;11.38;5.57;;;;;;;10.26;63.39;101827.16;4990012;28;20037;-86
2022/05/04 05:39:33;;;;;;;11.20;4.90;;;;;;;10.20;59.82;101814.94;4990944;28;20584;-87
2022/05/04 05:41:59;;;;;;;12.55;5.30;;;;;;;10.26;62.18;101827.16;4973098;28;20038;-87
2022/05/04 05:44:25;;;;;;;15.85;5.25;;;;;;;10.15;60.93;101806.25;4976038;28;20228;-88
2022/05/04 05:46:50;;;;;;;11.93;4.78;;;;;;;10.30;61.21;101835.00;4970445;28;20089;-86
2022/05/04 05:49:15;;;;;;;8.27;4.28;;;;;;;10.25;59.71;101818.38;4994001;28;20436;-87
2022/05/04 05:51:41;;;;;;;10.82;4.50;;;;;;;10.23;60.55;101834.25;4971654;28;20050;-87
2022/05/04 05:54:06;;;;;;;10.80;4.53;;;;;;;10.26;62.45;101833.34;4973261;28;20038;-86
2022/05/04 05:56:31;;;;;;;8.25;3.95;;;;;;;10.32;60.45;101830.56;4966452;28;20441;-87
2022/05/04 05:58:56;;;;;;;11.80;4.78;;;;;;;10.40;60.37;101828.59;4974150;28;20026;-88
2022/05/04 06:01:22;;;;;;;11.77;4.75;;;;;;;10.40;59.94;101833.91;4970994;28;20117;-86
2022/05/04 06:03:49;;;;;;;11.05;4.88;;;;;;;10.40;60.93;101827.75;4970448;28;20114;-87
2022/05/04 06:06:14;;;;;;;9.35;4.32;;;;;;;10.50;60.22;101836.31;4973297;28;20416;-87
2022/05/04 06:08:40;;;;;;;11.50;4.47;;;;;;;10.53;59.58;101838.88;4979004;28;20022;-87
2022/05/04 06:11:05;;;;;;;8.65;3.80;;;;;;;10.58;58.69;101837.00;4974724;28;20026;-87
2022/05/04 06:13:30;;;;;;;10.07;3.97;;;;;;;10.54;59.17;101835.31;4977777;28;20034;-87
2022/05/04 06:15:56;;;;;;;11.15;4.35;;;;;;;10.61;60.27;101835.16;4972533;28;20492;-86
2022/05/04 06:18:21;;;;;;;7.35;4.30;;;;;;;10.71;58.37;101834.00;4977098;28;20026;-87
2022/05/04 06:20:46;;;;;;;11.30;4.55;;;;;;;10.83;60.10;101839.91;4977467;28;20089;-88
2022/05/04 06:23:12;;;;;;;13.93;4.53;;;;;;;10.85;57.89;101833.66;4978620;28;20038;-87
2022/05/04 06:25:37;;;;;;;11.15;4.45;;;;;;;11.02;57.49;101851.75;4976736;28;20022;-88
2022/05/04 06:28:03;;;;;;;14.13;5.90;;;;;;;11.14;58.15;101858.50;4972962;28;20235;-87
2022/05/04 06:35:57;;;;;;;9.68;4.10;;;;;;;11.46;56.19;101844.41;4978428;28;20104;-88
2022/05/04 06:38:22;;;;;;;11.93;5.10;;;;;;;11.61;55.61;101845.75;4975058;28;20037;-87
2022/05/04 06:40:47;;;;;;;13.27;4.10;;;;;;;11.77;55.48;101856.78;4974172;28;20022;-87
2022/05/04 06:43:13;;;;;;;9.02;4.72;;;;;;;11.89;54.86;101851.16;4990406;28;20030;-87
2022/05/04 06:45:38;;;;;;;9.35;3.95;;;;;;;12.13;54.35;101861.03;4975378;28;20026;-89
2022/05/04 06:48:04;;;;;;;15.10;4.55;;;;;;;12.31;54.25;101850.75;4979315;28;20030;-88
2022/05/04 06:50:30;;;;;;;11.68;4.75;;;;;;;12.52;54.25;101850.09;4974049;28;20054;-87
2022/05/04 06:52:55;;;;;;;11.70;4.47;;;;;;;12.80;53.02;101860.69;4969236;28;20504;-89
2022/05/04 06:55:21;;;;;;;12.90;3.80;;;;;;;12.93;51.02;101847.88;4975916;28;20711;-88
2022/05/04 06:57:46;;;;;;;10.55;4.25;;;;;;;13.18;51.12;101864.69;4968173;28;20046;-88
2022/05/04 07:00:12;;;;;;;8.55;4.20;;;;;;;13.35;53.18;101845.53;4975170;28;20034;-87
2022/05/04 07:02:37;;;;;;;13.80;4.57;;;;;;;13.48;50.38;101856.59;4975553;28;20428;-87
2022/05/04 07:05:04;;;;;;;11.93;4.32;;;;;;;13.58;50.34;101843.84;4978494;28;20474;-87
2022/05/04 07:07:30;;;;;;;10.48;4.63;;;;;;;13.65;49.22;101851.53;4976943;28;20441;-87
2022/05/04 07:09:55;;;;;;;9.75;4.72;;;;;;;13.63;50.42;101845.41;4980589;28;20026;-88
2022/05/04 07:12:21;;;;;;;11.60;4.80;;;;;;;13.51;50.38;101848.50;4975775;28;20030;-87
2022/05/04 07:14:47;;;;;;;12.23;4.68;;;;;;;13.41;50.48;101845.31;4972959;28;20426;-87
2022/05/04 07:17:12;;;;;;;12.77;4.45;;;;;;;13.38;51.05;101837.47;4967290;28;20516;-86
2022/05/04 07:19:37;;;;;;;15.15;4.85;;;;;;;13.38;51.14;101837.47;4975455;28;20034;-86
2022/05/04 07:22:03;;;;;;;10.07;4.43;;;;;;;13.46;51.19;101847.81;4973661;28;20166;-87
2022/05/04 07:24:28;;;;;;;10.57;4.38;;;;;;;13.60;50.33;101852.63;4976757;28;20035;-87
2022/05/04 07:26:54;;;;;;;8.48;4.65;;;;;;;13.72;50.79;101844.22;4968417;28;20437;-87
2022/05/04 07:29:20;;;;;;;10.63;5.32;;;;;;;13.90;50.77;101851.50;4972368;28;20034;-88
2022/05/04 07:31:45;;;;;;;9.93;4.32;;;;;;;13.89;48.25;101843.56;4973722;28;20367;-87
2022/05/04 07:34:11;;;;;;;9.77;4.75;;;;;;;13.91;49.63;101837.28;4971090;28;20045;-87
2022/05/04 07:36:37;;;;;;;11.93;4.40;;;;;;;14.17;48.54;101844.22;4969399;28;20495;-88
2022/05/04 07:39:02;;;;;;;7.60;4.50;;;;;;;14.80;48.53;101853.25;4973555;28;20026;-87
2022/05/04 07:44:12;;;;;;;11.93;4.47;;;;;;;15.91;44.53;101849.31;4967969;28;20037;-87
2022/05/04 07:46:37;;;;;;;16.98;4.68;;;;;;;16.20;44.30;101847.94;4967174;28;20053;-86
2022/05/04 07:49:04;;;;;;;9.35;4.60;;;;;;;16.55;42.92;101830.22;4976546;28;20397;-87
2022/05/04 07:51:29;;;;;;;11.40;4.65;;;;;;;16.94;41.08;101852.38;4971339;28;20033;-87
2022/05/04 07:53:55;;;;;;;13.70;4.93;;;;;;;16.91;40.36;101833.81;4967533;28;20060;-86
2022/05/04 07:56:20;;;;;;;12.35;4.55;;;;;;;17.23;40.90;101843.72;4975679;28;20026;-87
2022/05/04 07:58:45;;;;;;;9.43;4.60;;;;;;;17.49;39.39;101849.50;4990747;28;20125;-86
2022/05/04 08:06:38;;;;;;;11.30;5.10;;;;;;;18.20;37.94;101865.28;4990037;28;20397;-87
2022/05/04 08:09:04;;;;;;;12.20;4.90;;;;;;;18.59;37.93;101863.00;4974140;28;20367;-87
2022/05/04 08:11:29;;;;;;;9.77;4.95;;;;;;;18.78;36.31;101856.63;4990264;28;20094;-86
2022/05/04 08:13:55;;;;;;;11.18;4.88;;;;;;;19.03;36.77;101850.72;4974457;28;20475;-86
2022/05/04 08:16:20;;;;;;;12.90;5.28;;;;;;;18.97;36.86;101859.09;4985147;28;20030;-86
2022/05/04 08:18:46;;;;;;;9.63;5.20;;;;;;;18.95;36.57;101845.78;4974215;28;20041;-86
2022/05/04 08:21:11;;;;;;;13.10;5.38;;;;;;;19.46;35.31;101858.84;4989632;28;20390;-85
2022/05/04 08:23:37;;;;;;;9.02;4.85;;;;;;;19.87;34.36;101843.72;4980463;28;20129;-87
2022/05/04 08:26:02;;;;;;;10.68;5.43;;;;;;;20.50;34.39;101846.88;4966327;28;20582;-86
2022/05/04 08:28:28;;;;;;;11.38;5.70;;;;;;;20.74;32.89;101849.78;4975688;28;20058;-86
2022/05/04 08:30:54;;;;;;;10.45;5.68;;;;;;;21.07;31.77;101852.00;4969188;28;20073;-85
2022/05/04 08:33:19;;;;;;;11.70;6.00;;;;;;;21.41;30.95;101855.97;4989338;28;20033;-87
2022/05/04 08:35:45;;;;;;;13.13;5.97;;;;;;;20.92;31.33;101839.63;4966571;28;20081;-86
2022/05/04 08:38:12;;;;;;;10.55;5.60;;;;;;;21.13;32.34;101859.66;4989539;28;20384;-86
2022/05/04 08:40:38;;;;;;;12.43;5.47;;;;;;;21.39;31.13;101850.69;4971959;28;20029;-87
2022/05/04 08:43:05;;;;;;;12.48;5.70;;;;;;;21.61;30.68;101843.81;4973007;28;20145;-86
2022/05/04 08:45:36;;;;;;;11.82;6.07;;;;;;;21.91;30.25;101857.75;4986581;28;20030;-86
2022/05/04 08:48:03;;;;;;;11.52;6.15;;;;;;;22.41;30.13;101857.78;4971929;28;20437;-86
2022/05/04 08:50:29;;;;;;;12.57;6.35;;;;;;;22.36;28.25;101855.41;4969295;28;20109;-86
2022/05/04 08:52:54;;;;;;;15.05;5.95;;;;;;;22.37;29.62;101842.81;4968320;28;20114;-87
2022/05/04 08:55:21;;;;;;;9.70;5.50;;;;;;;22.51;29.02;101849.88;4966386;28;20730;-87
2022/05/04 08:57:47;;;;;;;12.40;6.15;;;;;;;22.72;28.67;101848.28;4989223;28;20041;-87
2022/05/04 09:00:14;;;;;;;10.80;5.95;;;;;;;22.77;28.40;101854.16;4969709;28;20071;-87
2022/05/04 09:02:39;;;;;;;12.30;6.13;;;;;;;23.06;27.87;101849.28;4990398;28;20042;-87
2022/05/04 09:05:19;;;;;;;11.50;6.45;;;;;;;23.43;28.57;101857.22;4971866;28;20033;-86
2022/05/04 09:07:47;;;;;;;10.60;5.43;;;;;;;24.08;27.28;101844.88;4988237;28;20026;-87
2022/05/04 09:10:19;;;;;;;10.68;5.80;;;;;;;24.37;27.04;101842.50;4992032;28;20455;-87
2022/05/04 09:12:46;;;;;;;11.27;5.75;;;;;;;24.86;26.02;101852.78;4990268;28;20073;-87
2022/05/04 09:15:21;;;;;;;12.10;6.30;;;;;;;24.96;26.21;101854.72;4982457;28;20030;-87
2022/05/04 09:17:54;;;;;;;10.65;6.25;;;;;;;25.36;24.74;101846.75;4971868;28;20060;-86
2022/05/04 09:23:09;;;;;;;12.85;6.13;;;;;;;25.25;24.39;101841.41;4986548;28;20514;-86
2022/05/04 09:25:36;;;;;;;9.05;5.35;;;;;;;25.03;24.84;101839.66;4969345;28;20109;-88
2022/05/04 09:28:01;;;;;;;11.55;6.22;;;;;;;24.62;26.19;101822.38;4986006;28;20498;-87
2022/05/04 09:30:26;;;;;;;16.70;6.35;;;;;;;24.64;27.13;101825.84;4982886;28;20457;-86
2022/05/04 09:32:52;;;;;;;9.70;5.53;;;;;;;24.98;27.36;101833.78;4991213;28;20485;-86
2022/05/04 09:35:18;;;;;;;11.88;5.97;;;;;;;25.04;25.74;101839.56;4985259;28;20041;-87
2022/05/04 09:46:13;;;;;;;10.27;6.32;;;;;;;24.24;26.61;101829.09;4987820;28;20077;-86
2022/05/04 09:48:39;;;;;;;14.52;6.60;;;;;;;23.77;25.96;101830.28;4987915;28;20034;-87
2022/05/04 09:51:08;;;;;;;12.93;6.70;;;;;;;22.87;27.31;101825.53;4995132;28;20023;-88
2022/05/04 09:53:36;;;;;;;9.70;5.82;;;;;;;22.77;28.42;101816.41;4991020;28;20030;-88
2022/05/04 09:56:02;;;;;;;10.10;5.72;;;;;;;22.54;28.76;101825.38;4991313;28;20052;-87
2022/05/04 09:58:29;;;;;;;11.35;6.00;;;;;;;22.99;29.36;101826.47;4972971;28;20116;-86
2022/05/04 10:00:55;;;;;;;11.80;6.07;;;;;;;23.23;28.21;101826.41;4984358;28;20042;-86
2022/05/04 10:03:21;;;;;;;12.75;6.53;;;;;;;22.79;27.31;101814.47;4975541;28;20034;-86
2022/05/04 10:05:48;;;;;;;10.25;5.85;;;;;;;21.93;30.92;101816.41;4984931;28;20489;-87
2022/05/04 10:08:13;;;;;;;9.90;6.53;;;;;;;22.52;29.74;101813.84;4968932;28;20033;-88
2022/05/04 10:10:40;;;;;;;12.35;6.55;;;;;;;23.11;29.61;101809.31;4988969;28;20036;-86
2022/05/04 10:13:07;;;;;;;11.25;6.50;;;;;;;23.64;28.85;101822.28;4989334;28;20054;-86
2022/05/04 10:15:34;;;;;;;11.45;7.28;;;;;;;23.63;27.56;101826.78;4967879;28;20041;-87
2022/05/04 10:18:11;;;;;;;13.93;6.80;;;;;;;23.52;27.96;101813.31;4985149;28;20034;-86
2022/05/04 10:20:39;;;;;;;10.15;6.03;;;;;;;24.06;29.03;101811.69;4969793;28;20038;-86
2022/05/04 10:23:07;;;;;;;10.57;6.43;;;;;;;24.41;26.45;101814.25;4974517;28;20080;-86
2022/05/04 10:25:34;;;;;;;12.77;6.55;;;;;;;24.29;26.79;101807.97;4971853;28;20558;-87
2022/05/04 10:28:05;;;;;;;8.77;6.30;;;;;;;24.74;27.59;101807.84;4968015;28;20684;-87
2022/05/04 10:30:31;;;;;;;12.95;6.50;;;;;;;24.89;27.02;101811.06;4970079;28;20401;-89
2022/05/04 10:33:01;;;;;;;13.27;6.55;;;;;;;24.83;27.02;101804.34;4989185;28;20033;-88
2022/05/04 10:35:31;;;;;;;9.20;6.45;;;;;;;25.07;26.65;101809.53;4972936;28;20168;-87
2022/05/04 10:37:57;;;;;;;16.02;6.85;;;;;;;25.30;25.28;101809.41;4963021;28;20037;-89
2022/05/04 10:40:38;;;;;;;13.35;6.78;;;;;;;24.75;26.99;101804.13;4987705;28;20046;-87
2022/05/04 10:43:12;;;;;;;11.82;6.80;;;;;;;23.85;26.97;101806.22;4988791;28;20030;-87
2022/05/04 10:45:39;;;;;;;10.23;6.50;;;;;;;24.05;27.18;101809.97;4988470;28;20105;-88
2022/05/04 10:48:20;;;;;;;12.38;6.88;;;;;;;23.95;27.45;101803.63;4967588;28;20385;-88
2022/05/04 10:50:57;;;;;;;11.88;7.18;;;;;;;23.82;26.88;101804.59;4991296;28;20038;-88
2022/05/04 10:53:26;;;;;;;12.90;6.75;;;;;;;23.31;27.58;101810.44;4973061;28;20038;-89
2022/05/04 10:56:01;;;;;;;8.35;6.30;;;;;;;23.41;27.88;101807.91;4976157;28;20034;-88
2022/05/04 10:58:38;;;;;;;14.68;7.50;;;;;;;23.25;27.85;101810.09;4991176;28;20058;-89
2022/05/04 11:01:16;;;;;;;11.82;7.22;;;;;;;23.41;27.51;101803.38;4992016;28;20075;-86
2022/05/04 11:03:52;;;;;;;11.68;8.05;;;;;;;23.25;28.17;101801.97;4973401;28;20022;-87
2022/05/04 11:06:27;;;;;;;9.98;7.15;;;;;;;23.58;29.08;101806.56;4990084;28;20057;-87
2022/05/04 11:08:56;;;;;;;15.07;7.60;;;;;;;24.04;27.50;101795.63;4989135;28;20026;-88
2022/05/04 11:11:23;;;;;;;14.30;7.38;;;;;;;24.27;27.50;101792.88;4994238;28;20060;-87
2022/05/04 11:13:49;;;;;;;11.52;7.13;;;;;;;24.22;27.81;101793.25;4983915;28;20437;-87
2022/05/04 11:16:15;;;;;;;13.40;7.30;;;;;;;24.32;27.32;101791.50;4989185;28;20038;-88
2022/05/04 11:18:41;;;;;;;14.13;8.15;;;;;;;23.65;26.46;101787.09;4974991;28;20041;-87
2022/05/04 11:21:14;;;;;;;11.68;7.72;;;;;;;23.60;27.59;101778.47;4994721;28;20030;-86
2022/05/04 11:23:44;;;;;;;15.68;7.80;;;;;;;23.49;28.03;101783.00;4973682;28;20026;-87
2022/05/04 11:26:35;;;;;;;12.00;6.93;;;;;;;24.12;28.08;101779.66;4987936;28;20118;-87
2022/05/04 11:29:06;;;;;;;20.05;7.47;;;;;;;24.45;27.60;101774.28;4986111;28;20155;-89
2022/05/04 11:31:31;;;;;;;12.52;7.40;;;;;;;24.64;26.68;101764.50;4992679;28;20053;-89
2022/05/04 11:33:56;;;;;;;10.32;7.15;;;;;;;25.07;26.43;101766.25;4991100;28;20551;-88
2022/05/04 11:36:22;;;;;;;11.70;7.25;;;;;;;25.32;25.00;101775.78;4986538;28;20022;-88
2022/05/04 11:38:49;;;;;;;12.52;7.25;;;;;;;25.51;25.45;101784.97;4996496;28;20030;-88
2022/05/04 11:41:15;;;;;;;11.75;7.50;;;;;;;25.26;24.68;101775.47;4988114;28;20045;-87
2022/05/04 11:43:40;;;;;;;12.60;7.47;;;;;;;25.00;25.11;101762.34;4972762;28;20038;-87
2022/05/04 11:46:11;;;;;;;11.10;7.32;;;;;;;25.45;25.23;101773.69;4991578;28;20654;-88
2022/05/04 11:48:44;;;;;;;17.48;7.03;;;;;;;25.88;24.94;101766.31;4991232;28;20123;-87